Time;durP1;ratioP1;P1;durP2;ratioP2;P2;SDS_P1;SDS_P2;PMS_P1;PMS_P2;Temp;Humidity;BMP_temperature;BMP_pressure;BME280_temperature;BME280_humidity;BME280_pressure;Samples;Min_cycle;Max_cycle;Signal;HPM_P1;HPM_P2
2022/01/07 00:01:28;;;;;;;2.20;2.10;;;;;;;-0.30;63.80;100613.91;104214;1277;108458;-69
2022/01/07 00:03:56;;;;;;;1.80;1.80;;;;;;;-0.29;64.30;100618.98;104193;1277;138218;-68
2022/01/07 00:06:24;;;;;;;1.90;1.90;;;;;;;-0.29;63.88;100624.05;103449;1277;95648;-69
2022/01/07 00:08:51;;;;;;;1.90;1.90;;;;;;;-0.27;64.00;100622.90;103666;1278;95226;-68
2022/01/07 00:11:19;;;;;;;2.00;2.00;;;;;;;-0.19;64.27;100622.35;103994;1279;138416;-68
2022/01/07 00:13:51;;;;;;;1.90;1.90;;;;;;;-0.15;64.25;100618.59;103371;1278;109522;-69
2022/01/07 00:16:18;;;;;;;1.80;1.80;;;;;;;-0.15;64.24;100620.86;103334;1279;138194;-69
2022/01/07 00:18:46;;;;;;;1.70;1.70;;;;;;;-0.11;64.32;100618.33;103405;1278;96544;-69
2022/01/07 00:21:14;;;;;;;1.70;1.70;;;;;;;-0.01;64.48;100622.89;103174;1279;137358;-70
2022/01/07 00:23:42;;;;;;;1.60;1.60;;;;;;;0.04;64.21;100627.71;103412;1279;110491;-69
2022/01/07 00:26:09;;;;;;;1.90;1.90;;;;;;;0.03;64.19;100630.14;104350;1278;95245;-69
2022/01/07 00:28:37;;;;;;;1.80;1.80;;;;;;;0.04;64.13;100633.46;104245;1278;138273;-69
2022/01/07 00:31:05;;;;;;;1.80;1.80;;;;;;;-0.02;64.22;100634.41;104082;1279;109397;-70
2022/01/07 00:33:33;;;;;;;1.90;1.90;;;;;;;-0.03;64.30;100637.86;104223;1278;138268;-70
2022/01/07 00:36:01;;;;;;;1.80;1.80;;;;;;;-0.14;64.48;100641.99;104188;1277;95332;-67
2022/01/07 00:38:30;;;;;;;2.20;2.10;;;;;;;-0.25;64.91;100642.98;103431;1277;95400;-68
2022/01/07 00:40:58;;;;;;;1.80;1.80;;;;;;;-0.18;65.02;100644.35;103389;1277;138714;-70
2022/01/07 00:43:25;;;;;;;1.80;1.80;;;;;;;-0.17;64.74;100643.86;103782;1278;108571;-69
2022/01/07 00:45:53;;;;;;;1.80;1.80;;;;;;;-0.24;64.72;100642.84;104147;1279;138419;-69
2022/01/07 00:48:21;;;;;;;1.90;1.90;;;;;;;-0.31;65.09;100643.38;103472;1277;95716;-69
2022/01/07 00:50:49;;;;;;;1.90;1.90;;;;;;;-0.32;65.20;100649.11;103469;1277;109151;-68
2022/01/07 00:53:17;;;;;;;1.80;1.80;;;;;;;-0.36;65.20;100655.30;103355;1277;139424;-66
2022/01/07 00:55:45;;;;;;;1.90;1.90;;;;;;;-0.39;65.63;100658.90;103422;1277;95529;-67
2022/01/07 00:58:13;;;;;;;2.00;2.00;;;;;;;-0.46;65.56;100661.35;103425;1277;138750;-69
2022/01/07 01:00:41;;;;;;;2.00;2.00;;;;;;;-0.52;65.75;100658.11;103525;1277;109310;-70
2022/01/07 01:03:09;;;;;;;1.90;1.90;;;;;;;-0.43;65.91;100656.02;103391;1277;139707;-71
2022/01/07 01:05:37;;;;;;;1.80;1.80;;;;;;;-0.38;65.40;100653.34;103465;1277;95407;-70
2022/01/07 01:08:05;;;;;;;1.90;1.90;;;;;;;-0.41;65.51;100657.64;104280;1277;95643;-67
2022/01/07 01:10:33;;;;;;;2.20;2.10;;;;;;;-0.41;65.84;100653.63;103302;1277;138117;-69
2022/01/07 01:13:01;;;;;;;2.00;2.00;;;;;;;-0.38;65.57;100654.38;103436;1277;109248;-69
2022/01/07 01:15:29;;;;;;;1.80;1.80;;;;;;;-0.38;65.40;100649.68;103284;1277;138747;-69
2022/01/07 01:17:58;;;;;;;1.80;1.80;;;;;;;-0.35;65.58;100644.70;103480;1278;95340;-70
2022/01/07 01:20:28;;;;;;;2.00;2.00;;;;;;;-0.38;65.44;100641.48;103767;1277;108822;-68
2022/01/07 01:22:55;;;;;;;2.20;2.10;;;;;;;-0.37;65.59;100647.08;103531;1277;138631;-69
2022/01/07 01:25:23;;;;;;;1.90;1.90;;;;;;;-0.33;65.21;100647.70;103790;1277;95853;-69
2022/01/07 01:27:51;;;;;;;1.90;1.90;;;;;;;-0.40;65.37;100650.16;104084;1277;138322;-69
2022/01/07 01:30:19;;;;;;;1.90;1.90;;;;;;;-0.43;65.31;100649.73;103519;1277;108851;-69
2022/01/07 01:32:48;;;;;;;2.20;2.10;;;;;;;-0.57;65.58;100652.41;103687;1277;109841;-69
2022/01/07 01:35:17;;;;;;;2.40;2.30;;;;;;;-0.59;65.61;100652.87;103322;1277;142716;-70
2022/01/07 01:37:46;;;;;;;1.90;1.90;;;;;;;-0.61;65.83;100652.48;103589;1277;95231;-67
2022/01/07 01:40:16;;;;;;;1.90;1.90;;;;;;;-0.56;65.47;100649.62;103407;1277;138114;-68
2022/01/07 01:42:46;;;;;;;1.90;1.90;;;;;;;-0.63;65.74;100654.70;103799;1277;109734;-69
2022/01/07 01:45:16;;;;;;;2.00;2.00;;;;;;;-0.67;65.81;100657.56;104008;1277;139772;-69
2022/01/07 01:47:45;;;;;;;1.80;1.80;;;;;;;-0.66;65.86;100660.38;103728;1277;95355;-69
2022/01/07 01:50:14;;;;;;;2.00;2.00;;;;;;;-0.68;65.78;100660.67;103595;1277;109298;-69
2022/01/07 01:52:48;;;;;;;1.80;1.80;;;;;;;-0.79;65.91;100660.42;103681;1277;140331;-70
2022/01/07 01:55:18;;;;;;;2.20;2.10;;;;;;;-0.81;66.04;100664.03;103616;1277;95316;-69
2022/01/07 01:57:46;;;;;;;1.80;1.80;;;;;;;-0.75;65.98;100668.89;103898;1277;139005;-69
2022/01/07 02:00:14;;;;;;;1.90;1.90;;;;;;;-0.74;65.69;100670.66;103565;1277;108694;-69
2022/01/07 02:02:42;;;;;;;1.90;1.90;;;;;;;-0.78;65.62;100673.17;103636;1277;108743;-70
2022/01/07 02:05:11;;;;;;;2.10;2.00;;;;;;;-0.90;65.65;100675.14;103393;1279;139399;-71
2022/01/07 02:07:40;;;;;;;2.00;2.00;;;;;;;-0.94;65.68;100679.75;103846;1277;95675;-69
2022/01/07 02:10:14;;;;;;;1.90;1.90;;;;;;;-0.90;65.68;100681.58;103601;1277;138989;-68
2022/01/07 02:12:43;;;;;;;2.00;2.00;;;;;;;-0.90;65.84;100680.22;103648;1277;109951;-69
2022/01/07 02:15:13;;;;;;;2.30;2.20;;;;;;;-0.89;65.85;100684.42;103719;1277;138828;-70
2022/01/07 02:17:44;;;;;;;2.30;2.20;;;;;;;-0.88;65.57;100686.20;104110;1277;95624;-68
2022/01/07 02:20:13;;;;;;;2.00;2.00;;;;;;;-0.90;65.71;100688.23;103611;1278;109003;-70
2022/01/07 02:22:42;;;;;;;2.00;2.00;;;;;;;-0.89;65.55;100689.28;103342;1277;138707;-70
2022/01/07 02:25:11;;;;;;;2.20;2.10;;;;;;;-0.96;65.43;100691.38;104133;1277;95779;-70
2022/01/07 02:27:41;;;;;;;2.30;2.20;;;;;;;-1.00;65.55;100690.77;103980;1277;138913;-69
2022/01/07 02:30:13;;;;;;;2.00;2.00;;;;;;;-0.95;65.70;100692.98;104090;1278;108679;-70
2022/01/07 02:32:40;;;;;;;2.00;2.00;;;;;;;-0.90;65.40;100688.75;103813;1277;109408;-70
2022/01/07 02:35:09;;;;;;;2.30;2.20;;;;;;;-0.93;65.34;100693.39;103994;1278;138108;-69
2022/01/07 02:37:37;;;;;;;2.40;2.30;;;;;;;-0.96;65.31;100687.88;104106;1277;95239;-70
2022/01/07 02:40:06;;;;;;;2.40;2.30;;;;;;;-0.96;65.26;100689.13;104041;1277;138685;-69
2022/01/07 02:42:34;;;;;;;2.20;2.10;;;;;;;-0.92;65.31;100695.15;103672;1277;109001;-70
2022/01/07 02:45:08;;;;;;;2.20;2.10;;;;;;;-0.89;65.17;100697.33;103511;1277;95359;-69
2022/01/07 02:47:49;;;;;;;2.40;2.30;;;;;;;-0.93;64.78;100698.59;103613;1278;138526;-70
2022/01/07 02:50:20;;;;;;;2.40;2.30;;;;;;;-1.03;65.02;100703.77;103618;1277;108821;-69
2022/01/07 02:52:48;;;;;;;2.20;2.10;;;;;;;-1.12;65.06;100705.45;103568;1277;138809;-69
2022/01/07 02:55:16;;;;;;;2.30;2.20;;;;;;;-1.13;65.39;100704.02;103499;1277;95238;-70
2022/01/07 02:57:44;;;;;;;2.20;2.10;;;;;;;-1.10;65.14;100698.52;103401;1278;138478;-69
2022/01/07 03:00:14;;;;;;;2.40;2.30;;;;;;;-1.07;65.18;100696.33;103518;1277;108739;-69
2022/01/07 03:02:41;;;;;;;2.30;2.20;;;;;;;-1.01;64.93;100696.33;103587;1278;108788;-69
2022/01/07 03:05:10;;;;;;;2.20;2.10;;;;;;;-0.96;64.94;100697.14;103809;1277;138826;-69
2022/01/07 03:07:39;;;;;;;2.10;2.00;;;;;;;-0.99;64.46;100699.50;103594;1277;95666;-69
2022/01/07 03:10:09;;;;;;;2.30;2.20;;;;;;;-1.06;64.63;100705.25;103608;1277;138377;-69
2022/01/07 03:12:37;;;;;;;2.30;2.20;;;;;;;-1.13;64.98;100705.75;104128;1277;110540;-69
2022/01/07 03:15:05;;;;;;;2.20;2.10;;;;;;;-1.06;64.82;100705.07;103533;1278;95629;-68
2022/01/07 03:17:33;;;;;;;2.30;2.20;;;;;;;-1.07;64.58;100708.01;103460;1278;138259;-69
2022/01/07 03:20:01;;;;;;;2.40;2.30;;;;;;;-1.07;64.76;100708.01;103578;1277;109112;-70
2022/01/07 03:22:29;;;;;;;2.40;2.30;;;;;;;-1.05;64.76;100708.58;103956;1278;138497;-69
2022/01/07 03:24:56;;;;;;;2.40;2.30;;;;;;;-1.06;64.61;100713.09;104137;1277;95669;-69
2022/01/07 03:27:24;;;;;;;2.30;2.20;;;;;;;-1.04;64.57;100713.14;103808;1278;138831;-70
2022/01/07 03:29:52;;;;;;;2.30;2.20;;;;;;;-1.03;64.35;100708.81;103570;1277;108818;-69
2022/01/07 03:32:20;;;;;;;2.40;2.30;;;;;;;-1.01;64.30;100707.46;103563;1278;109748;-69
2022/01/07 03:34:47;;;;;;;2.40;2.30;;;;;;;-1.01;64.16;100712.35;103460;1277;138500;-70
2022/01/07 03:37:15;;;;;;;2.40;2.30;;;;;;;-0.97;64.22;100714.52;103731;1278;95180;-68
2022/01/07 03:39:43;;;;;;;2.20;2.10;;;;;;;-0.94;64.32;100719.67;104050;1277;138501;-70
2022/01/07 03:42:11;;;;;;;2.30;2.20;;;;;;;-0.97;63.83;100718.89;104114;1278;109853;-69
2022/01/07 03:44:38;;;;;;;2.30;2.20;;;;;;;-1.06;64.10;100720.59;103578;1277;95573;-70
2022/01/07 03:47:06;;;;;;;2.40;2.30;;;;;;;-1.14;64.14;100721.92;103417;1277;138366;-67
2022/01/07 03:49:34;;;;;;;2.00;2.00;;;;;;;-1.12;64.21;100719.02;103511;1278;108889;-70
2022/01/07 03:52:03;;;;;;;2.30;2.20;;;;;;;-1.08;64.20;100720.69;103390;1277;139063;-67
2022/01/07 03:54:31;;;;;;;2.30;2.20;;;;;;;-1.11;63.99;100723.92;103545;1279;95836;-69
2022/01/07 03:56:59;;;;;;;2.40;2.30;;;;;;;-1.12;64.02;100725.48;103513;1277;95240;-69
2022/01/07 03:59:27;;;;;;;2.30;2.20;;;;;;;-1.13;64.35;100724.21;103420;1277;138316;-70
2022/01/07 04:01:55;;;;;;;2.40;2.30;;;;;;;-1.11;64.36;100719.73;103538;1277;109773;-68
2022/01/07 04:04:23;;;;;;;2.30;2.20;;;;;;;-1.08;64.30;100721.23;103423;1279;138878;-69
2022/01/07 04:06:51;;;;;;;2.20;2.10;;;;;;;-1.11;63.98;100721.30;103586;1279;95214;-69
2022/01/07 04:09:19;;;;;;;2.50;2.40;;;;;;;-1.16;63.98;100719.80;103391;1277;138117;-69
2022/01/07 04:11:46;;;;;;;2.60;2.50;;;;;;;-1.12;64.15;100721.48;104291;1277;110626;-68
2022/01/07 04:14:14;;;;;;;2.20;2.10;;;;;;;-1.17;64.06;100722.56;103477;1277;95216;-70
2022/01/07 04:16:42;;;;;;;2.20;2.10;;;;;;;-1.24;63.90;100728.29;104241;1278;138084;-68
2022/01/07 04:19:10;;;;;;;2.30;2.20;;;;;;;-1.30;64.25;100727.60;103413;1277;107788;-69
2022/01/07 04:21:38;;;;;;;2.50;2.40;;;;;;;-1.29;64.35;100730.77;103328;1279;138763;-69
2022/01/07 04:24:05;;;;;;;2.50;2.40;;;;;;;-1.21;64.21;100727.68;103410;1279;95265;-69
2022/01/07 04:26:33;;;;;;;2.40;2.30;;;;;;;-1.29;64.09;100723.63;103492;1279;95520;-69
2022/01/07 04:29:01;;;;;;;2.20;2.10;;;;;;;-1.32;64.35;100714.50;103455;1277;138893;-69
2022/01/07 04:31:28;;;;;;;2.30;2.20;;;;;;;-1.25;64.32;100709.46;103507;1277;109480;-68
2022/01/07 04:33:56;;;;;;;2.40;2.30;;;;;;;-1.30;64.08;100705.66;103439;1277;139142;-70
2022/01/07 04:36:24;;;;;;;2.40;2.30;;;;;;;-1.33;64.26;100702.79;103561;1278;95606;-69
2022/01/07 04:38:52;;;;;;;2.00;2.00;;;;;;;-1.36;64.43;100705.50;103497;1277;108662;-69
2022/01/07 04:41:20;;;;;;;2.20;2.10;;;;;;;-1.39;64.28;100707.67;104106;1277;138148;-70
2022/01/07 04:43:48;;;;;;;2.50;2.40;;;;;;;-1.45;64.24;100697.93;104205;1277;95673;-69
2022/01/07 04:46:16;;;;;;;2.30;2.20;;;;;;;-1.41;64.68;100695.96;104411;1277;138256;-69
2022/01/07 04:48:44;;;;;;;2.20;2.10;;;;;;;-1.28;64.45;100695.98;103542;1277;107045;-69
2022/01/07 04:51:12;;;;;;;2.10;2.00;;;;;;;-1.26;63.91;100695.64;103554;1279;109401;-68
2022/01/07 04:53:40;;;;;;;2.20;2.10;;;;;;;-1.33;64.04;100694.10;104192;1277;138028;-67
2022/01/07 04:56:07;;;;;;;2.50;2.40;;;;;;;-1.42;64.08;100695.58;104157;1277;96051;-69
2022/01/07 04:58:35;;;;;;;2.20;2.10;;;;;;;-1.45;64.40;100692.54;103415;1277;139523;-67
2022/01/07 05:01:03;;;;;;;2.20;2.10;;;;;;;-1.38;64.13;100691.16;103553;1279;110267;-70
2022/01/07 05:03:31;;;;;;;2.40;2.30;;;;;;;-1.35;64.14;100693.36;104025;1279;138687;-70
2022/01/07 05:06:13;;;;;;;2.30;2.20;;;;;;;-1.29;64.02;100697.68;104136;1277;95232;-68
2022/01/07 05:08:41;;;;;;;2.40;2.30;;;;;;;-1.27;63.99;100695.64;104108;1278;108865;-69
2022/01/07 05:11:08;;;;;;;2.40;2.30;;;;;;;-1.28;63.79;100689.70;104045;1279;139347;-69
2022/01/07 05:13:36;;;;;;;2.10;2.00;;;;;;;-1.24;63.83;100688.92;104076;1277;95283;-68
2022/01/07 05:16:05;;;;;;;2.20;2.10;;;;;;;-1.22;63.97;100685.49;104033;1279;136957;-68
2022/01/07 05:18:33;;;;;;;2.20;2.10;;;;;;;-1.20;63.95;100685.55;103578;1278;108886;-69
2022/01/07 05:21:01;;;;;;;2.60;2.50;;;;;;;-1.16;63.56;100687.38;103508;1279;109738;-69
2022/01/07 05:23:28;;;;;;;2.20;2.10;;;;;;;-1.19;63.45;100681.92;103421;1277;138898;-70
2022/01/07 05:25:56;;;;;;;2.00;2.00;;;;;;;-1.24;63.76;100677.79;103481;1278;95222;-67
2022/01/07 05:28:24;;;;;;;2.20;2.10;;;;;;;-1.20;63.66;100673.51;103429;1277;138144;-69
2022/01/07 05:30:51;;;;;;;2.40;2.30;;;;;;;-1.20;63.53;100671.62;103514;1279;109808;-70
2022/01/07 05:33:19;;;;;;;2.30;2.20;;;;;;;-1.27;63.39;100672.83;103405;1279;139208;-70
2022/01/07 05:35:52;;;;;;;2.20;2.10;;;;;;;-1.36;63.43;100670.33;104184;1279;95584;-69
2022/01/07 05:38:20;;;;;;;2.30;2.20;;;;;;;-1.40;63.72;100673.70;104086;1278;109142;-69
2022/01/07 05:40:48;;;;;;;2.40;2.30;;;;;;;-1.44;63.39;100682.10;103325;1277;138177;-68
2022/01/07 05:43:15;;;;;;;2.40;2.30;;;;;;;-1.52;63.90;100681.21;103589;1279;95637;-70
2022/01/07 05:45:45;;;;;;;2.30;2.20;;;;;;;-1.48;63.75;100685.14;104078;1277;139381;-69
2022/01/07 05:48:13;;;;;;;2.30;2.20;;;;;;;-1.56;63.72;100685.98;104176;1277;108772;-69
2022/01/07 05:50:41;;;;;;;2.30;2.20;;;;;;;-1.56;63.74;100686.67;104140;1277;109234;-69
2022/01/07 05:53:10;;;;;;;2.30;2.20;;;;;;;-1.65;63.77;100686.43;104032;1279;139086;-69
2022/01/07 05:55:37;;;;;;;2.40;2.30;;;;;;;-1.73;64.14;100687.60;104193;1278;95644;-69
2022/01/07 05:58:05;;;;;;;2.30;2.20;;;;;;;-1.72;64.42;100693.20;104102;1277;138987;-69
2022/01/07 06:00:33;;;;;;;2.20;2.10;;;;;;;-1.67;64.21;100699.44;104113;1277;109704;-69
2022/01/07 06:03:01;;;;;;;2.20;2.10;;;;;;;-1.68;64.16;100696.95;103635;1277;95398;-69
2022/01/07 06:05:29;;;;;;;2.50;2.40;;;;;;;-1.74;64.25;100697.15;103624;1277;139598;-68
2022/01/07 06:07:57;;;;;;;2.30;2.20;;;;;;;-1.70;64.46;100695.16;103541;1279;109208;-69
2022/01/07 06:10:24;;;;;;;2.30;2.20;;;;;;;-1.69;63.96;100696.94;103526;1278;138567;-68
2022/01/07 06:12:52;;;;;;;2.40;2.30;;;;;;;-1.74;64.05;100704.63;103567;1278;95230;-69
2022/01/07 06:15:20;;;;;;;2.40;2.30;;;;;;;-1.77;64.06;100701.77;103435;1278;142249;-69
2022/01/07 06:17:48;;;;;;;2.50;2.40;;;;;;;-1.81;64.32;100709.80;103481;1277;108363;-70
2022/01/07 06:20:15;;;;;;;2.30;2.20;;;;;;;-1.84;64.09;100711.98;103539;1279;110480;-68
2022/01/07 06:22:43;;;;;;;2.60;2.50;;;;;;;-1.94;64.38;100711.72;103436;1279;139229;-69
2022/01/07 06:25:11;;;;;;;2.50;2.40;;;;;;;-1.93;64.51;100709.83;103628;1279;95717;-68
2022/01/07 06:27:39;;;;;;;2.50;2.40;;;;;;;-1.93;64.53;100709.81;104016;1279;138046;-68
2022/01/07 06:30:08;;;;;;;2.50;2.40;;;;;;;-1.97;64.43;100705.02;104116;1279;109421;-68
2022/01/07 06:32:36;;;;;;;2.40;2.30;;;;;;;-1.93;64.58;100705.45;103500;1279;95636;-68
2022/01/07 06:35:05;;;;;;;2.20;2.10;;;;;;;-1.89;64.51;100702.99;103342;1279;138856;-68
2022/01/07 06:37:33;;;;;;;2.30;2.20;;;;;;;-1.86;64.73;100702.02;103754;1279;109330;-69
2022/01/07 06:40:02;;;;;;;2.50;2.40;;;;;;;-1.79;64.24;100696.30;103410;1279;138847;-70
2022/01/07 06:42:30;;;;;;;2.50;2.40;;;;;;;-1.84;64.48;100695.66;103680;1278;95832;-69
2022/01/07 06:44:58;;;;;;;2.20;2.10;;;;;;;-1.71;64.49;100696.86;103786;1279;96558;-70
2022/01/07 06:47:26;;;;;;;2.30;2.20;;;;;;;-1.69;64.05;100698.16;104064;1278;138518;-71
2022/01/07 06:49:53;;;;;;;2.40;2.30;;;;;;;-1.78;64.04;100694.05;104147;1279;110483;-69
2022/01/07 06:52:21;;;;;;;2.30;2.20;;;;;;;-1.83;64.65;100698.10;104108;1279;138238;-69
2022/01/07 06:54:49;;;;;;;2.30;2.20;;;;;;;-1.79;64.75;100698.20;104250;1279;96015;-69
2022/01/07 06:57:17;;;;;;;2.30;2.20;;;;;;;-1.79;64.71;100703.63;104280;1279;108810;-69
2022/01/07 06:59:45;;;;;;;2.20;2.10;;;;;;;-1.80;64.74;100703.76;104090;1279;138274;-69
2022/01/07 07:02:13;;;;;;;2.20;2.10;;;;;;;-1.79;64.89;100711.95;104304;1279;95922;-65
2022/01/07 07:04:40;;;;;;;2.60;2.50;;;;;;;-1.72;65.11;100709.73;103467;1277;138722;-65
2022/01/07 07:07:08;;;;;;;2.20;2.10;;;;;;;-1.54;65.04;100709.02;103543;1279;107793;-66
2022/01/07 07:09:36;;;;;;;2.00;2.00;;;;;;;-1.45;64.89;100703.17;103226;1279;139182;-66
2022/01/07 07:12:05;;;;;;;2.30;2.20;;;;;;;-1.42;64.33;100706.20;103747;1279;95995;-64
2022/01/07 07:14:33;;;;;;;2.40;2.30;;;;;;;-1.53;64.52;100704.87;103450;1279;95634;-65
2022/01/07 07:17:00;;;;;;;2.40;2.30;;;;;;;-1.55;64.84;100710.39;103382;1279;138535;-64
2022/01/07 07:19:28;;;;;;;2.00;2.00;;;;;;;-1.53;64.75;100714.09;103337;1278;110258;-65
2022/01/07 07:21:56;;;;;;;2.00;2.00;;;;;;;-1.50;64.94;100710.88;103401;1279;138104;-65
2022/01/07 07:24:23;;;;;;;2.20;2.10;;;;;;;-1.44;65.13;100712.60;103531;1279;95681;-65
2022/01/07 07:26:51;;;;;;;2.20;2.10;;;;;;;-1.42;65.26;100712.13;103486;1278;109047;-65
2022/01/07 07:29:19;;;;;;;2.20;2.10;;;;;;;-1.33;65.41;100703.31;103429;1279;140720;-65
2022/01/07 07:31:50;;;;;;;2.20;2.10;;;;;;;-1.25;65.31;100706.66;103560;1280;95287;-65
2022/01/07 07:34:43;;;;;;;2.20;2.10;;;;;;;-1.20;65.50;100714.45;103407;1280;138435;-64
2022/01/07 07:37:10;;;;;;;2.20;2.10;;;;;;;-1.11;65.48;100710.35;104447;1278;108995;-67
2022/01/07 07:39:38;;;;;;;2.30;2.20;;;;;;;-1.02;65.59;100712.33;103345;1280;139088;-65
2022/01/07 07:42:06;;;;;;;2.20;2.10;;;;;;;-0.91;65.51;100715.73;103486;1277;95212;-64
2022/01/07 07:44:36;;;;;;;1.90;1.90;;;;;;;-0.86;65.50;100717.45;103495;1278;95850;-65
2022/01/07 07:47:04;;;;;;;2.00;2.00;;;;;;;-0.76;65.65;100713.86;103378;1279;137932;-67
2022/01/07 07:49:32;;;;;;;2.00;2.00;;;;;;;-0.73;65.68;100710.96;103508;1279;109805;-66
2022/01/07 07:52:00;;;;;;;1.90;1.90;;;;;;;-0.61;65.67;100711.75;103376;1277;138491;-65
2022/01/07 07:54:28;;;;;;;1.80;1.80;;;;;;;-0.55;65.43;100708.44;103489;1279;96185;-66
2022/01/07 07:56:57;;;;;;;1.90;1.90;;;;;;;-0.49;65.40;100707.68;103411;1277;107786;-65
2022/01/07 07:59:26;;;;;;;1.90;1.90;;;;;;;-0.46;65.01;100698.85;103345;1279;138717;-65
2022/01/07 08:01:54;;;;;;;1.90;1.90;;;;;;;-0.44;64.97;100695.59;104054;1278;95258;-64
2022/01/07 08:04:22;;;;;;;2.20;2.10;;;;;;;-0.40;64.82;100693.08;103574;1278;138867;-65
2022/01/07 08:06:49;;;;;;;1.90;1.90;;;;;;;-0.34;64.71;100692.70;103483;1277;110653;-66
2022/01/07 08:09:18;;;;;;;1.90;1.90;;;;;;;-0.30;64.83;100699.23;103533;1277;110479;-66
2022/01/07 08:11:51;;;;;;;2.00;2.00;;;;;;;-0.22;64.40;100694.52;104039;1277;138850;-64
2022/01/07 08:28:37;;;;;;;1.60;1.60;;;;;;;0.04;63.75;100697.70;99899;1313;647723;-65
2022/01/07 08:36:29;;;;;;;1.80;1.80;;;;;;;0.30;63.13;100700.17;101830;1288;137242;-65
2022/01/07 08:38:57;;;;;;;1.80;1.80;;;;;;;0.34;62.82;100700.94;102105;1291;108770;-65
2022/01/07 08:41:27;;;;;;;1.90;1.90;;;;;;;0.38;62.77;100703.11;102084;1289;137383;-63
2022/01/07 08:43:56;;;;;;;2.10;2.00;;;;;;;0.41;63.04;100700.40;102214;1289;94837;-63
2022/01/07 08:46:24;;;;;;;1.80;1.80;;;;;;;0.49;62.78;100700.36;102174;1289;137128;-66
2022/01/07 08:48:52;;;;;;;1.90;1.90;;;;;;;0.45;62.41;100702.75;102209;1289;108880;-64
2022/01/07 08:51:20;;;;;;;1.90;1.90;;;;;;;0.42;62.68;100708.28;102511;1290;105884;-65
2022/01/07 08:53:51;;;;;;;1.80;1.80;;;;;;;0.49;62.74;100713.66;102425;1290;137989;-68
2022/01/07 08:56:23;;;;;;;1.70;1.70;;;;;;;0.60;63.05;100717.70;102456;1289;94890;-66
2022/01/07 08:58:52;;;;;;;1.70;1.70;;;;;;;0.59;62.09;100714.89;103262;1279;137339;-64
2022/01/07 09:01:21;;;;;;;1.80;1.80;;;;;;;0.58;62.27;100714.70;103325;1277;105967;-66
2022/01/07 09:03:49;;;;;;;1.80;1.80;;;;;;;0.60;62.22;100715.95;103908;1277;95583;-64
2022/01/07 09:06:18;;;;;;;1.70;1.70;;;;;;;0.69;61.57;100719.95;105216;1277;138567;-66
2022/01/07 09:08:46;;;;;;;1.60;1.60;;;;;;;0.71;61.31;100721.41;103184;1278;108556;-65
2022/01/07 09:11:14;;;;;;;1.60;1.60;;;;;;;0.75;60.76;100726.55;103056;1277;137205;-66
2022/01/07 09:13:42;;;;;;;1.70;1.70;;;;;;;0.79;61.94;100731.52;103189;1277;94333;-66
2022/01/07 09:16:09;;;;;;;1.70;1.70;;;;;;;0.84;61.67;100733.36;103206;1277;94816;-64
2022/01/07 09:18:37;;;;;;;1.80;1.80;;;;;;;0.78;61.10;100728.70;103628;1277;138062;-65
2022/01/07 09:21:10;;;;;;;1.70;1.70;;;;;;;0.72;60.67;100721.77;103491;1277;107492;-65
2022/01/07 09:23:41;;;;;;;1.90;1.90;;;;;;;0.74;61.18;100715.88;103409;1278;137830;-64
2022/01/07 09:26:11;;;;;;;1.70;1.70;;;;;;;0.84;61.07;100713.44;103696;1277;94840;-65
2022/01/07 09:28:39;;;;;;;1.60;1.60;;;;;;;1.10;59.99;100712.67;103906;1277;137428;-66
2022/01/07 09:31:06;;;;;;;1.60;1.60;;;;;;;1.14;59.31;100712.92;103490;1280;106146;-65
2022/01/07 09:33:34;;;;;;;1.80;1.80;;;;;;;1.14;59.28;100711.17;103345;1280;94347;-66
2022/01/07 09:36:22;;;;;;;1.70;1.70;;;;;;;1.26;59.44;100711.02;103374;1280;137645;-64
2022/01/07 09:38:50;;;;;;;1.60;1.60;;;;;;;1.34;58.86;100708.70;103353;1280;108542;-65
2022/01/07 09:41:18;;;;;;;1.60;1.60;;;;;;;1.53;58.58;100705.84;103346;1279;137806;-66
2022/01/07 09:43:45;;;;;;;1.50;1.50;;;;;;;1.99;57.02;100698.11;103457;1278;94316;-65
2022/01/07 09:46:15;;;;;;;1.50;1.50;;;;;;;2.21;56.51;100688.59;103467;1280;94735;-66
2022/01/07 09:48:43;;;;;;;1.50;1.50;;;;;;;2.35;56.19;100690.15;103276;1279;137608;-65
2022/01/07 09:51:13;;;;;;;1.40;1.40;;;;;;;2.45;56.34;100687.30;103321;1279;106994;-66
2022/01/07 09:53:42;;;;;;;1.40;1.40;;;;;;;2.44;55.44;100680.64;103364;1280;137573;-65
2022/01/07 09:56:11;;;;;;;1.40;1.40;;;;;;;2.70;55.70;100686.35;103444;1280;94737;-65
2022/01/07 09:58:39;;;;;;;1.30;1.30;;;;;;;2.79;55.14;100687.14;103417;1280;137300;-64
2022/01/07 10:01:16;;;;;;;1.30;1.30;;;;;;;2.69;54.51;100682.47;103445;1279;107658;-64
2022/01/07 10:03:45;;;;;;;1.40;1.40;;;;;;;2.52;55.17;100676.33;103335;1280;94630;-64
2022/01/07 10:06:20;;;;;;;1.40;1.40;;;;;;;2.37;55.40;100675.64;103192;1280;137017;-63
2022/01/07 10:09:11;;;;;;;1.40;1.40;;;;;;;2.25;54.83;100670.24;103248;1278;108989;-64
2022/01/07 10:11:39;;;;;;;1.50;1.50;;;;;;;2.23;55.87;100669.00;103240;1277;137277;-64
2022/01/07 10:14:21;;;;;;;1.50;1.50;;;;;;;2.23;55.52;100670.74;103229;1277;94776;-65
2022/01/07 10:16:57;;;;;;;1.40;1.40;;;;;;;2.15;55.16;100665.20;103350;1278;137637;-65
2022/01/07 10:19:38;;;;;;;1.40;1.40;;;;;;;2.08;55.09;100666.89;103403;1278;108678;-64
2022/01/07 10:22:12;;;;;;;1.40;1.40;;;;;;;2.12;55.97;100663.95;103396;1280;107192;-65
2022/01/07 10:25:00;;;;;;;1.40;1.40;;;;;;;2.17;56.31;100666.64;103398;1280;137289;-65
2022/01/07 10:27:36;;;;;;;1.60;1.60;;;;;;;2.23;55.74;100662.33;103263;1279;94234;-64
2022/01/07 10:30:11;;;;;;;1.50;1.50;;;;;;;2.14;55.25;100666.61;103638;1279;137263;-64
2022/01/07 10:32:39;;;;;;;1.50;1.50;;;;;;;2.11;55.40;100668.14;103865;1280;107082;-66
2022/01/07 10:35:13;;;;;;;1.60;1.60;;;;;;;2.12;55.10;100670.45;103173;1280;137694;-66
2022/01/07 10:37:59;;;;;;;1.50;1.50;;;;;;;2.26;55.14;100670.08;103518;1280;94523;-65
2022/01/07 10:40:33;;;;;;;1.50;1.50;;;;;;;2.31;54.40;100662.77;103152;1279;137340;-66
2022/01/07 10:43:08;;;;;;;1.30;1.30;;;;;;;2.37;54.05;100666.00;103426;1280;107517;-66
2022/01/07 10:45:38;;;;;;;1.50;1.50;;;;;;;2.29;54.16;100656.80;103492;1280;94293;-67
2022/01/07 10:48:07;;;;;;;1.40;1.40;;;;;;;2.31;55.27;100652.61;103633;1278;137850;-66
2022/01/07 10:50:41;;;;;;;1.40;1.40;;;;;;;2.36;55.18;100653.02;103267;1278;108792;-66
2022/01/07 10:53:25;;;;;;;1.40;1.40;;;;;;;2.38;54.93;100652.88;103700;1278;137288;-65
2022/01/07 10:56:05;;;;;;;1.40;1.40;;;;;;;2.38;54.80;100653.23;103698;1279;94936;-66
2022/01/07 10:58:42;;;;;;;1.40;1.40;;;;;;;2.40;54.98;100657.27;103624;1280;137107;-65
2022/01/07 11:01:37;;;;;;;1.40;1.40;;;;;;;2.33;54.74;100657.73;103333;1279;107456;-66
2022/01/07 11:04:08;;;;;;;1.40;1.40;;;;;;;2.26;54.51;100657.64;103240;1279;106003;-66
2022/01/07 11:06:37;;;;;;;1.40;1.40;;;;;;;2.25;54.65;100656.40;103897;1280;139158;-66
2022/01/07 11:09:09;;;;;;;1.30;1.30;;;;;;;2.31;54.66;100657.88;103459;1278;94293;-67
2022/01/07 11:11:57;;;;;;;1.40;1.40;;;;;;;2.38;54.85;100659.19;103276;1279;137258;-67
2022/01/07 11:14:27;;;;;;;1.50;1.50;;;;;;;2.41;54.60;100657.80;103685;1279;107083;-64
2022/01/07 11:16:58;;;;;;;1.50;1.50;;;;;;;2.45;53.90;100654.88;103188;1278;137646;-69
2022/01/07 11:19:31;;;;;;;1.40;1.40;;;;;;;2.49;54.05;100653.35;103507;1280;95476;-63
2022/01/07 11:22:00;;;;;;;1.30;1.30;;;;;;;2.47;53.97;100654.90;104088;1280;108795;-65
2022/01/07 11:24:35;;;;;;;1.40;1.40;;;;;;;2.38;53.37;100648.32;103351;1277;138284;-64
2022/01/07 11:27:04;;;;;;;1.40;1.40;;;;;;;2.38;54.34;100652.70;103347;1279;95585;-65
2022/01/07 11:29:36;;;;;;;1.40;1.40;;;;;;;2.42;54.46;100652.21;103274;1280;137670;-65
2022/01/07 11:32:26;;;;;;;1.40;1.40;;;;;;;2.40;54.42;100655.86;103388;1280;108895;-66
2022/01/07 11:35:14;;;;;;;1.30;1.30;;;;;;;2.41;54.54;100658.16;103270;1280;137950;-66
2022/01/07 11:37:44;;;;;;;1.50;1.50;;;;;;;2.45;54.58;100658.73;103281;1280;96251;-64
2022/01/07 11:40:31;;;;;;;1.40;1.40;;;;;;;2.46;54.40;100661.91;103355;1277;94811;-66
2022/01/07 11:43:24;;;;;;;1.40;1.40;;;;;;;2.45;54.00;100658.03;103253;1277;137621;-64
2022/01/07 11:45:52;;;;;;;1.50;1.50;;;;;;;2.45;54.46;100658.91;103520;1278;107085;-65